createdAt,value
2022-09-18T00:00:22.236Z,3.88
2022-09-18T00:03:46.347Z,3.65
2022-09-18T00:07:09.241Z,3.55
2022-09-18T00:10:32.597Z,3.03
2022-09-18T00:13:57.218Z,4.20
2022-09-18T00:17:20.101Z,3.40
2022-09-18T00:20:42.969Z,2.58
2022-09-18T00:24:07.461Z,3.58
2022-09-18T00:27:30.359Z,3.03
2022-09-18T00:30:54.736Z,3.55
2022-09-18T00:34:18.063Z,3.72
2022-09-18T00:37:40.987Z,3.20
2022-09-18T00:41:05.804Z,3.42
2022-09-18T00:44:36.493Z,3.47
2022-09-18T00:48:01.570Z,3.25
2022-09-18T00:51:26.578Z,3.85
2022-09-18T00:54:53.144Z,2.35
2022-09-18T00:58:16.141Z,2.70
2022-09-18T01:01:39.270Z,3.20
2022-09-18T01:05:03.774Z,2.95
2022-09-18T01:08:43.220Z,3.17
2022-09-18T01:12:16.590Z,3.20
2022-09-18T01:15:45.784Z,3.33
2022-09-18T01:19:26.262Z,3.05
2022-09-18T01:23:08.900Z,2.60
2022-09-18T01:26:44.795Z,2.83
2022-09-18T01:30:11.899Z,2.97
2022-09-18T01:33:42.861Z,2.08
2022-09-18T01:37:13.401Z,3.30
2022-09-18T01:40:40.985Z,2.47
2022-09-18T01:44:10.126Z,2.58
2022-09-18T01:47:40.322Z,2.03
2022-09-18T01:51:06.972Z,2.72
2022-09-18T01:54:35.198Z,2.40
2022-09-18T01:58:03.052Z,2.40
2022-09-18T02:01:30.274Z,1.70
2022-09-18T02:04:58.992Z,2.45
2022-09-18T02:08:24.864Z,2.17
2022-09-18T02:11:55.457Z,1.70
2022-09-18T02:15:19.561Z,2.40
2022-09-18T02:18:52.201Z,2.65
2022-09-18T02:22:21.716Z,2.15
2022-09-18T02:25:49.587Z,2.15
2022-09-18T02:29:15.540Z,2.25
2022-09-18T02:32:39.990Z,2.58
2022-09-18T02:36:32.764Z,1.95
2022-09-18T02:40:15.103Z,2.45
2022-09-18T02:43:49.745Z,1.80
2022-09-18T02:47:22.166Z,1.80
2022-09-18T02:50:50.349Z,2.30
2022-09-18T02:54:19.328Z,2.60
2022-09-18T02:57:50.183Z,2.00
2022-09-18T03:01:14.834Z,2.00
2022-09-18T03:04:39.417Z,2.00
2022-09-18T03:08:06.734Z,1.60
2022-09-18T03:11:29.624Z,1.63
2022-09-18T03:14:53.894Z,1.92
2022-09-18T03:18:16.927Z,1.70
2022-09-18T03:21:39.849Z,1.65
2022-09-18T03:25:04.919Z,2.00
2022-09-18T03:28:32.049Z,2.15
2022-09-18T03:32:00.169Z,1.50
2022-09-18T03:35:23.374Z,1.70
2022-09-18T03:38:46.286Z,1.90
2022-09-18T03:42:09.341Z,1.95
2022-09-18T03:45:32.814Z,1.60
2022-09-18T03:48:58.208Z,1.63
2022-09-18T03:52:23.962Z,2.17
2022-09-18T03:55:52.233Z,1.80
2022-09-18T03:59:21.173Z,1.80
2022-09-18T04:03:07.362Z,1.73
2022-09-18T04:06:51.666Z,1.95
2022-09-18T04:10:40.475Z,2.00
2022-09-18T04:14:03.779Z,1.55
2022-09-18T04:17:26.811Z,1.67
2022-09-18T04:20:49.805Z,1.42
2022-09-18T04:24:15.322Z,1.52
2022-09-18T04:27:38.262Z,1.60
2022-09-18T04:31:01.433Z,1.67
2022-09-18T04:34:25.693Z,1.90
2022-09-18T04:37:49.477Z,1.90
2022-09-18T04:41:13.737Z,1.75
2022-09-18T04:44:39.281Z,1.58
2022-09-18T04:48:03.866Z,1.30
2022-09-18T04:51:27.036Z,1.25
2022-09-18T04:54:50.067Z,1.92
2022-09-18T04:58:17.035Z,1.77
2022-09-18T05:01:41.615Z,1.52
2022-09-18T05:05:08.078Z,1.38
2022-09-18T05:08:34.405Z,1.58
2022-09-18T05:11:57.976Z,2.28
2022-09-18T05:15:22.936Z,1.98
2022-09-18T05:18:47.812Z,2.00
2022-09-18T05:22:10.904Z,1.75
2022-09-18T05:25:38.219Z,1.80
2022-09-18T05:29:01.168Z,1.90
2022-09-18T05:32:25.535Z,1.63
2022-09-18T05:35:54.105Z,1.73
2022-09-18T05:39:17.864Z,2.25
2022-09-18T05:42:46.281Z,1.60
2022-09-18T05:46:10.966Z,1.92
2022-09-18T05:49:48.069Z,1.60
2022-09-18T05:53:13.400Z,1.63
2022-09-18T05:57:14.812Z,1.83
2022-09-18T06:00:37.902Z,2.03
2022-09-18T06:04:07.266Z,1.95
2022-09-18T06:07:46.288Z,2.08
2022-09-18T06:11:09.400Z,2.20
2022-09-18T06:14:32.488Z,2.00
2022-09-18T06:17:55.516Z,1.60
2022-09-18T06:21:19.482Z,1.65
2022-09-18T06:24:50.064Z,1.65
2022-09-18T06:28:16.476Z,1.80
2022-09-18T06:31:39.420Z,2.15
2022-09-18T06:35:05.788Z,2.10
2022-09-18T06:38:28.913Z,2.67
2022-09-18T06:41:53.491Z,2.22
2022-09-18T06:45:22.671Z,2.92
2022-09-18T06:48:50.781Z,1.88
2022-09-18T06:52:15.845Z,2.47
2022-09-18T06:55:39.789Z,2.30
2022-09-18T06:59:04.096Z,2.42
2022-09-18T07:02:27.136Z,3.00
2022-09-18T07:05:54.460Z,3.72
2022-09-18T07:09:28.646Z,3.15
2022-09-18T07:13:08.590Z,3.95
2022-09-18T07:16:40.637Z,3.58
2022-09-18T07:20:04.213Z,3.33
2022-09-18T07:23:34.779Z,3.47
2022-09-18T07:26:59.369Z,3.17
2022-09-18T07:30:23.106Z,3.50
2022-09-18T07:33:53.425Z,3.25
2022-09-18T07:37:18.617Z,3.78
2022-09-18T07:40:48.468Z,2.35
2022-09-18T07:44:22.796Z,3.67
2022-09-18T07:47:45.718Z,3.13
2022-09-18T07:51:11.122Z,2.97
2022-09-18T07:54:35.710Z,3.97
2022-09-18T07:58:05.819Z,3.47
2022-09-18T08:01:48.225Z,2.90
2022-09-18T08:05:12.482Z,4.47
2022-09-18T08:08:41.209Z,3.42
2022-09-18T08:12:24.352Z,2.97
2022-09-18T08:16:04.901Z,3.47
2022-09-18T08:19:46.184Z,3.35
2022-09-18T08:23:31.424Z,3.47
2022-09-18T08:27:03.194Z,3.38
2022-09-18T08:30:27.156Z,2.97
2022-09-18T08:33:52.561Z,3.53
2022-09-18T08:37:16.562Z,2.35
2022-09-18T08:41:32.958Z,3.15
2022-09-18T08:45:01.578Z,3.25
2022-09-18T08:48:28.889Z,2.25
2022-09-18T08:52:04.047Z,4.75
2022-09-18T08:55:33.281Z,3.92
2022-09-18T08:59:17.816Z,5.25
2022-09-18T09:02:48.000Z,4.95
2022-09-18T09:06:23.924Z,4.50
2022-09-18T09:10:04.417Z,3.75
2022-09-18T09:13:59.489Z,3.22
2022-09-18T09:17:39.459Z,3.42
2022-09-18T09:21:15.075Z,3.47
2022-09-18T09:24:45.252Z,4.03
2022-09-18T09:28:50.501Z,3.45
2022-09-18T09:32:37.914Z,3.30
2022-09-18T09:36:12.068Z,3.78
2022-09-18T09:39:44.433Z,3.30
2022-09-18T09:43:27.799Z,2.92
2022-09-18T09:47:01.151Z,3.80
2022-09-18T09:50:38.132Z,3.63
2022-09-18T09:54:03.426Z,2.40
2022-09-18T09:57:35.522Z,3.63
2022-09-18T10:01:07.002Z,3.05
2022-09-18T10:04:38.942Z,2.72
2022-09-18T10:08:07.083Z,3.20
2022-09-18T10:11:33.058Z,3.15
2022-09-18T10:15:04.326Z,2.75
2022-09-18T10:18:33.457Z,2.67
2022-09-18T10:21:57.597Z,3.22
2022-09-18T10:25:29.182Z,2.90
2022-09-18T10:28:53.549Z,3.28
2022-09-18T10:32:33.978Z,3.40
2022-09-18T10:36:03.974Z,3.58
2022-09-18T10:39:31.570Z,2.97
2022-09-18T10:43:04.590Z,3.30
2022-09-18T10:46:31.407Z,3.20
2022-09-18T10:49:58.445Z,3.20
2022-09-18T10:53:30.722Z,3.45
2022-09-18T10:57:26.408Z,4.28
2022-09-18T11:00:56.315Z,3.15
2022-09-18T11:04:23.934Z,3.70
2022-09-18T11:07:49.798Z,3.97
2022-09-18T11:11:22.723Z,4.63
2022-09-18T11:14:50.473Z,3.40
2022-09-18T11:18:17.334Z,5.00
2022-09-18T11:21:47.201Z,3.97
2022-09-18T11:25:20.337Z,4.10
2022-09-18T11:29:02.198Z,4.40
2022-09-18T11:32:30.952Z,4.95
2022-09-18T11:36:03.827Z,4.22
2022-09-18T11:39:34.770Z,4.75
2022-09-18T11:43:05.372Z,4.47
2022-09-18T11:46:40.370Z,5.35
2022-09-18T11:50:11.870Z,4.55
2022-09-18T11:53:41.238Z,3.70
2022-09-18T11:57:15.104Z,3.75
2022-09-18T12:00:43.443Z,5.18
2022-09-18T12:04:14.270Z,3.22
2022-09-18T12:07:43.432Z,4.03
2022-09-18T12:11:17.060Z,4.13
2022-09-18T12:14:47.093Z,4.25
2022-09-18T12:18:18.214Z,5.20
2022-09-18T12:21:48.368Z,3.33
2022-09-18T12:25:14.061Z,4.32
2022-09-18T12:29:10.451Z,4.28
2022-09-18T12:32:52.044Z,3.65
2022-09-18T12:36:45.498Z,3.40
2022-09-18T12:40:30.903Z,4.07
2022-09-18T12:44:16.139Z,4.78
2022-09-18T12:47:58.011Z,3.85
2022-09-18T12:51:35.600Z,3.38
2022-09-18T12:55:15.702Z,3.97
2022-09-18T12:58:56.443Z,2.60
2022-09-18T13:02:38.976Z,2.90
2022-09-18T13:06:09.596Z,3.47
2022-09-18T13:09:37.873Z,3.83
2022-09-18T13:13:04.997Z,3.63
2022-09-18T13:16:35.159Z,2.53
2022-09-18T13:20:06.754Z,3.72
2022-09-18T13:23:34.241Z,3.08
2022-09-18T13:26:58.649Z,3.13
2022-09-18T13:30:26.733Z,3.90
2022-09-18T13:33:53.033Z,2.75
2022-09-18T13:37:18.077Z,2.95
2022-09-18T13:40:44.532Z,3.08
2022-09-18T13:44:14.977Z,2.88
2022-09-18T13:48:02.686Z,2.72
2022-09-18T13:51:31.254Z,2.92
2022-09-18T13:55:02.240Z,2.47
2022-09-18T13:58:38.758Z,2.88
2022-09-18T14:02:02.790Z,2.42
2022-09-18T14:05:31.856Z,2.67
2022-09-18T14:08:54.832Z,3.30
2022-09-18T14:12:18.664Z,2.65
2022-09-18T14:15:54.772Z,2.67
2022-09-18T14:19:31.994Z,3.17
2022-09-18T14:22:54.876Z,2.72
2022-09-18T14:26:51.233Z,3.28
2022-09-18T14:30:22.876Z,3.28
2022-09-18T14:33:47.188Z,3.10
2022-09-18T14:37:24.763Z,2.92
2022-09-18T14:40:54.451Z,2.80
2022-09-18T14:44:18.361Z,2.50
2022-09-18T14:47:43.295Z,3.40
2022-09-18T14:51:19.781Z,2.72
2022-09-18T14:54:47.665Z,2.83
2022-09-18T14:58:16.632Z,3.38
2022-09-18T15:01:41.016Z,2.88
2022-09-18T15:05:11.321Z,3.53
2022-09-18T15:08:39.516Z,3.28
2022-09-18T15:12:03.551Z,2.78
2022-09-18T15:15:32.979Z,2.35
2022-09-18T15:18:56.380Z,4.15
2022-09-18T15:22:22.898Z,3.10
2022-09-18T15:25:52.936Z,3.58
2022-09-18T15:29:22.025Z,3.90
2022-09-18T15:32:49.181Z,3.40
2022-09-18T15:36:24.857Z,2.90
2022-09-18T15:39:52.850Z,3.83
2022-09-18T15:43:40.988Z,3.00
2022-09-18T15:47:30.865Z,4.43
2022-09-18T15:51:09.041Z,3.83
2022-09-18T15:54:31.951Z,3.15
2022-09-18T15:57:57.093Z,5.00
2022-09-18T16:01:28.427Z,4.88
2022-09-18T16:04:53.320Z,6.95
2022-09-18T16:08:19.975Z,5.93
2022-09-18T16:11:45.632Z,5.75
2022-09-18T16:15:20.477Z,5.22
2022-09-18T16:18:52.628Z,5.72
2022-09-18T16:22:16.549Z,4.88
2022-09-18T16:25:41.795Z,5.20
2022-09-18T16:29:07.594Z,5.57
2022-09-18T16:32:30.478Z,6.53
2022-09-18T16:36:02.949Z,5.45
2022-09-18T16:39:27.701Z,6.38
2022-09-18T16:42:50.692Z,6.97
2022-09-18T16:46:14.073Z,6.18
2022-09-18T16:49:40.065Z,7.35
2022-09-18T16:53:04.625Z,6.68
2022-09-18T16:56:32.712Z,5.63
2022-09-18T16:59:58.224Z,6.82
2022-09-18T17:03:21.313Z,6.40
2022-09-18T17:06:44.237Z,5.68
2022-09-18T17:10:09.748Z,5.57
2022-09-18T17:13:32.727Z,5.22
2022-09-18T17:16:55.826Z,5.57
2022-09-18T17:20:18.897Z,4.97
2022-09-18T17:23:41.882Z,5.45
2022-09-18T17:27:06.313Z,5.15
2022-09-18T17:30:29.290Z,5.65
2022-09-18T17:33:53.099Z,5.07
2022-09-18T17:37:16.180Z,4.53
2022-09-18T17:40:39.150Z,4.82
2022-09-18T17:44:04.233Z,3.83
2022-09-18T17:47:27.127Z,4.65
2022-09-18T17:50:56.054Z,4.78
2022-09-18T17:54:19.127Z,5.22
2022-09-18T17:57:42.016Z,4.45
2022-09-18T18:01:10.992Z,4.50
2022-09-18T18:04:34.236Z,3.78
2022-09-18T18:07:57.244Z,4.95
2022-09-18T18:11:22.505Z,4.43
2022-09-18T18:14:45.496Z,4.45
2022-09-18T18:18:09.736Z,4.45
2022-09-18T18:21:34.402Z,3.95
2022-09-18T18:24:57.303Z,3.58
2022-09-18T18:28:20.886Z,4.00
2022-09-18T18:31:45.976Z,4.30
2022-09-18T18:35:11.493Z,4.07
2022-09-18T18:38:34.481Z,5.05
2022-09-18T18:41:57.406Z,4.68
2022-09-18T18:45:20.463Z,4.95
2022-09-18T18:48:45.113Z,4.32
2022-09-18T18:52:09.493Z,4.15
2022-09-18T18:55:35.228Z,5.03
2022-09-18T18:58:59.816Z,4.40
2022-09-18T19:02:22.861Z,4.20
2022-09-18T19:05:46.196Z,4.40
2022-09-18T19:09:14.331Z,4.88
2022-09-18T19:12:40.041Z,4.90
2022-09-18T19:16:05.150Z,5.32
2022-09-18T19:19:29.182Z,4.32
2022-09-18T19:22:56.656Z,5.45
2022-09-18T19:26:22.060Z,4.03
2022-09-18T19:29:45.033Z,4.45
2022-09-18T19:33:09.117Z,4.30
2022-09-18T19:36:32.784Z,4.40
2022-09-18T19:39:55.779Z,4.72
2022-09-18T19:43:27.842Z,3.80
2022-09-18T19:46:51.765Z,3.70
2022-09-18T19:50:23.024Z,3.80
2022-09-18T19:53:46.284Z,3.65
2022-09-18T19:57:09.232Z,3.92
2022-09-18T20:00:33.526Z,4.07
2022-09-18T20:04:00.381Z,3.25
2022-09-18T20:07:23.344Z,2.80
2022-09-18T20:10:48.419Z,3.83
2022-09-18T20:14:11.388Z,4.07
2022-09-18T20:17:35.819Z,3.75
2022-09-18T20:21:04.014Z,4.93
2022-09-18T20:24:26.972Z,5.13
2022-09-18T20:27:49.973Z,4.53
2022-09-18T20:31:15.129Z,3.22
2022-09-18T20:34:39.873Z,4.03
2022-09-18T20:38:04.049Z,4.20
2022-09-18T20:41:27.910Z,3.80
2022-09-18T20:44:51.741Z,3.88
2022-09-18T20:48:14.693Z,3.78
2022-09-18T20:51:38.913Z,3.17
2022-09-18T20:55:01.814Z,3.25
2022-09-18T20:58:25.185Z,3.72
2022-09-18T21:01:48.909Z,2.92
2022-09-18T21:05:14.500Z,3.42
2022-09-18T21:08:43.464Z,3.67
2022-09-18T21:12:06.708Z,3.25
2022-09-18T21:15:31.171Z,3.10
2022-09-18T21:18:56.575Z,3.15
2022-09-18T21:22:19.462Z,3.67
2022-09-18T21:25:44.066Z,2.33
2022-09-18T21:29:10.943Z,2.85
2022-09-18T21:32:33.854Z,3.20
2022-09-18T21:35:56.764Z,2.53
2022-09-18T21:39:19.805Z,2.47
2022-09-18T21:42:47.479Z,2.47
2022-09-18T21:46:12.309Z,2.72
2022-09-18T21:49:35.936Z,2.95
2022-09-18T21:52:58.843Z,2.40
2022-09-18T21:56:22.000Z,3.25
2022-09-18T21:59:46.443Z,2.97
2022-09-18T22:03:10.074Z,2.53
2022-09-18T22:06:36.144Z,2.50
2022-09-18T22:09:59.297Z,2.40
2022-09-18T22:13:22.958Z,2.55
2022-09-18T22:16:48.333Z,2.67
2022-09-18T22:20:11.508Z,2.75
2022-09-18T22:23:34.693Z,1.80
2022-09-18T22:26:59.489Z,2.65
2022-09-18T22:30:22.400Z,3.30
2022-09-18T22:33:47.341Z,2.13
2022-09-18T22:37:11.735Z,2.17
2022-09-18T22:40:34.739Z,2.47
2022-09-18T22:43:58.376Z,2.13
2022-09-18T22:47:21.268Z,2.22
2022-09-18T22:50:45.517Z,2.17
2022-09-18T22:54:09.094Z,1.70
2022-09-18T22:57:32.464Z,2.80
2022-09-18T23:00:55.374Z,2.28
2022-09-18T23:04:19.286Z,2.67
2022-09-18T23:07:43.527Z,2.10
2022-09-18T23:11:08.723Z,2.38
2022-09-18T23:14:32.219Z,2.20
2022-09-18T23:17:55.820Z,1.98
2022-09-18T23:21:18.740Z,1.83
2022-09-18T23:24:42.969Z,2.08
2022-09-18T23:28:05.885Z,2.35
2022-09-18T23:31:30.227Z,2.25
2022-09-18T23:34:54.344Z,1.80
2022-09-18T23:38:17.300Z,1.95
2022-09-18T23:41:42.357Z,2.45
2022-09-18T23:45:06.224Z,2.10
2022-09-18T23:48:30.037Z,2.10
2022-09-18T23:51:54.592Z,1.75
2022-09-18T23:55:18.187Z,2.35
2022-09-18T23:58:42.560Z,1.98
